Time;durP1;ratioP1;P1;durP2;ratioP2;P2;SDS_P1;SDS_P2;PMS_P1;PMS_P2;Temp;Humidity;BMP_temperature;BMP_pressure;BME280_temperature;BME280_humidity;BME280_pressure;Samples;Min_cycle;Max_cycle;Signal;HPM_P1;HPM_P2
2023/04/14 00:02:24;;;;;;;8.93;3.58;;;;;;;;;;5077817;28;20128;-73
2023/04/14 00:04:54;;;;;;;11.85;4.03;;;;;;;;;;5092233;28;20122;-73
2023/04/14 00:07:20;;;;;;;6.22;3.35;;;;;;;;;;5076112;28;20052;-73
2023/04/14 00:09:46;;;;;;;10.65;3.00;;;;;;;;;;5088581;28;20040;-73
2023/04/14 00:12:12;;;;;;;10.10;3.15;;;;;;;;;;5090017;28;20416;-73
2023/04/14 00:14:38;;;;;;;10.73;3.83;;;;;;;;;;5080530;28;20048;-73
2023/04/14 00:17:04;;;;;;;8.82;2.80;;;;;;;;;;5083750;28;20040;-73
2023/04/14 00:19:30;;;;;;;11.30;3.20;;;;;;;;;;5092443;28;20048;-72
2023/04/14 00:21:56;;;;;;;7.63;3.15;;;;;;;;;;5094678;28;20054;-73
2023/04/14 00:24:22;;;;;;;10.63;3.17;;;;;;;;;;5097266;28;20363;-73
2023/04/14 00:26:48;;;;;;;8.20;2.80;;;;;;;;;;5094922;28;20469;-73
2023/04/14 00:29:14;;;;;;;8.82;3.47;;;;;;;;;;5081774;28;20051;-73
2023/04/14 00:31:40;;;;;;;12.60;3.25;;;;;;;;;;5089227;28;20490;-74
2023/04/14 00:34:06;;;;;;;12.93;3.42;;;;;;;;;;5075929;28;20078;-74
2023/04/14 00:36:33;;;;;;;9.10;3.17;;;;;;;;;;5075394;28;20068;-74
2023/04/14 00:38:59;;;;;;;12.88;3.83;;;;;;;;;;5084184;28;20052;-74
2023/04/14 00:41:26;;;;;;;9.52;3.60;;;;;;;;;;5096025;28;20080;-74
2023/04/14 00:43:53;;;;;;;6.32;3.30;;;;;;;;;;5094817;28;20044;-73
2023/04/14 00:46:19;;;;;;;10.60;2.97;;;;;;;;;;5092589;28;20048;-74
2023/04/14 00:48:45;;;;;;;9.77;3.17;;;;;;;;;;5094499;28;20370;-74
2023/04/14 00:51:11;;;;;;;9.10;3.45;;;;;;;;;;5096258;28;20078;-74
2023/04/14 00:53:38;;;;;;;8.70;3.80;;;;;;;;;;5058482;28;20051;-74
2023/04/14 00:56:04;;;;;;;12.73;3.65;;;;;;;;;;5076628;28;20076;-74
2023/04/14 00:58:31;;;;;;;11.35;3.40;;;;;;;;;;5089982;28;20387;-74
2023/04/14 01:00:57;;;;;;;10.60;3.28;;;;;;;;;;5080739;28;20047;-74
2023/04/14 01:03:24;;;;;;;9.57;3.13;;;;;;;;;;5085972;28;20044;-73
2023/04/14 01:05:50;;;;;;;10.52;3.25;;;;;;;;;;5096670;28;20115;-73
2023/04/14 01:08:17;;;;;;;9.02;3.40;;;;;;;;;;5087719;28;20047;-73
2023/04/14 01:10:54;;;;;;;7.93;3.63;;;;;;;;;;5085699;28;20108;-73
2023/04/14 01:13:38;;;;;;;10.55;3.00;;;;;;;;;;5088625;28;20114;-73
2023/04/14 01:16:12;;;;;;;11.70;3.55;;;;;;;;;;5079317;28;20080;-73
2023/04/14 01:18:57;;;;;;;11.13;3.55;;;;;;;;;;5076589;28;20056;-73
2023/04/14 01:21:28;;;;;;;8.40;3.20;;;;;;;;;;5084339;28;20101;-73
2023/04/14 01:24:11;;;;;;;9.23;3.55;;;;;;;;;;5093915;28;20445;-73
2023/04/14 01:26:37;;;;;;;12.07;3.88;;;;;;;;;;5095954;28;20040;-73
2023/04/14 01:29:22;;;;;;;10.95;3.67;;;;;;;;;;5086068;28;20048;-73
2023/04/14 01:31:49;;;;;;;4.50;2.90;;;;;;;;;;5088810;28;20040;-73
2023/04/14 01:34:24;;;;;;;7.28;3.17;;;;;;;;;;5077755;28;20153;-73
2023/04/14 01:36:58;;;;;;;6.05;3.20;;;;;;;;;;5095826;28;20513;-73
2023/04/14 01:39:28;;;;;;;9.73;3.85;;;;;;;;;;5095184;28;20056;-74
2023/04/14 01:41:57;;;;;;;8.15;3.13;;;;;;;;;;5083570;28;20048;-74
2023/04/14 01:44:24;;;;;;;9.55;3.50;;;;;;;;;;5075268;28;20037;-74
2023/04/14 01:46:52;;;;;;;9.05;3.30;;;;;;;;;;5075715;28;20040;-74
2023/04/14 01:49:19;;;;;;;12.15;3.05;;;;;;;;;;5075274;28;20394;-74
2023/04/14 01:51:46;;;;;;;5.95;3.15;;;;;;;;;;5094598;28;20123;-74
2023/04/14 01:54:12;;;;;;;6.55;3.28;;;;;;;;;;5075334;28;20055;-74
2023/04/14 01:56:40;;;;;;;9.55;3.38;;;;;;;;;;5094036;28;20040;-74
2023/04/14 01:59:07;;;;;;;8.05;3.47;;;;;;;;;;5089660;28;20049;-74
2023/04/14 02:01:34;;;;;;;10.23;3.50;;;;;;;;;;5075580;28;20051;-74
2023/04/14 02:04:01;;;;;;;8.07;3.28;;;;;;;;;;5084772;28;20036;-73
2023/04/14 02:06:28;;;;;;;7.90;3.30;;;;;;;;;;5095398;28;20542;-73
2023/04/14 02:08:55;;;;;;;10.85;3.78;;;;;;;;;;5083640;28;20048;-73
2023/04/14 02:11:22;;;;;;;9.27;3.50;;;;;;;;;;5076846;28;20040;-74
2023/04/14 02:13:48;;;;;;;9.48;3.53;;;;;;;;;;5085845;28;20502;-73
2023/04/14 02:16:15;;;;;;;8.32;3.50;;;;;;;;;;5096299;28;20044;-73
2023/04/14 02:18:41;;;;;;;9.63;3.22;;;;;;;;;;5083265;28;20059;-73
2023/04/14 02:21:08;;;;;;;10.43;3.58;;;;;;;;;;5074792;28;20063;-73
2023/04/14 02:23:34;;;;;;;7.38;3.50;;;;;;;;;;5088955;28;20047;-74
2023/04/14 02:26:02;;;;;;;9.68;4.00;;;;;;;;;;5093298;28;20541;-74
2023/04/14 02:28:29;;;;;;;7.40;3.67;;;;;;;;;;5089695;28;20037;-74
2023/04/14 02:30:57;;;;;;;8.63;3.83;;;;;;;;;;5073440;28;20052;-74
2023/04/14 02:33:26;;;;;;;9.30;3.67;;;;;;;;;;5082379;28;20389;-73
2023/04/14 02:35:59;;;;;;;11.18;3.50;;;;;;;;;;5077342;28;20070;-73
2023/04/14 02:38:31;;;;;;;10.32;3.72;;;;;;;;;;5077703;28;20429;-74
2023/04/14 02:41:00;;;;;;;8.90;3.78;;;;;;;;;;5074114;28;20119;-73
2023/04/14 02:43:29;;;;;;;9.52;3.53;;;;;;;;;;5092232;28;20092;-73
2023/04/14 02:45:55;;;;;;;5.50;3.17;;;;;;;;;;5094675;28;20139;-73
2023/04/14 02:48:24;;;;;;;8.35;3.88;;;;;;;;;;5091214;28;20044;-73
2023/04/14 02:50:52;;;;;;;9.13;3.15;;;;;;;;;;5080896;28;20488;-73
2023/04/14 02:53:20;;;;;;;8.45;3.10;;;;;;;;;;5083348;28;20108;-73
2023/04/14 02:55:47;;;;;;;6.55;3.05;;;;;;;;;;5074047;28;20071;-73
2023/04/14 02:58:14;;;;;;;8.32;3.30;;;;;;;;;;5082079;28;20040;-73
2023/04/14 03:00:40;;;;;;;8.70;3.50;;;;;;;;;;5091953;28;20036;-74
2023/04/14 03:03:07;;;;;;;8.63;3.80;;;;;;;;;;5087771;28;20048;-73
2023/04/14 03:05:34;;;;;;;7.68;3.70;;;;;;;;;;5092421;28;20047;-73
2023/04/14 03:08:02;;;;;;;11.77;3.93;;;;;;;;;;5092117;28;20045;-73
2023/04/14 03:10:28;;;;;;;10.38;3.65;;;;;;;;;;5083716;28;20403;-73
2023/04/14 03:12:55;;;;;;;10.48;3.78;;;;;;;;;;5089148;28;20032;-73
2023/04/14 03:15:22;;;;;;;10.55;3.40;;;;;;;;;;5080745;28;20044;-73
2023/04/14 03:17:52;;;;;;;8.15;3.47;;;;;;;;;;5089700;28;20379;-74
2023/04/14 03:20:20;;;;;;;8.93;4.15;;;;;;;;;;5081831;28;20049;-74
2023/04/14 03:22:47;;;;;;;10.48;3.25;;;;;;;;;;5090205;28;20494;-73
2023/04/14 03:25:14;;;;;;;12.68;4.18;;;;;;;;;;5088919;28;20078;-73
2023/04/14 03:27:41;;;;;;;16.15;4.60;;;;;;;;;;5091004;28;20055;-73
2023/04/14 03:30:09;;;;;;;9.68;4.00;;;;;;;;;;5073886;28;20123;-74
2023/04/14 03:32:40;;;;;;;9.90;3.53;;;;;;;;;;5083013;28;20137;-73
2023/04/14 03:35:06;;;;;;;10.88;3.95;;;;;;;;;;5087162;28;20048;-73
2023/04/14 03:37:33;;;;;;;7.80;3.30;;;;;;;;;;5091398;28;20447;-73
2023/04/14 03:40:00;;;;;;;7.38;3.20;;;;;;;;;;5092769;28;20480;-73
2023/04/14 03:42:28;;;;;;;7.78;3.40;;;;;;;;;;5083212;28;20120;-73
2023/04/14 03:44:55;;;;;;;7.90;3.17;;;;;;;;;;5072899;28;20040;-73
2023/04/14 03:47:23;;;;;;;8.52;3.72;;;;;;;;;;5072946;28;20101;-73
2023/04/14 03:49:50;;;;;;;9.85;3.55;;;;;;;;;;5073524;28;20165;-73
2023/04/14 03:52:18;;;;;;;11.85;3.80;;;;;;;;;;5068369;28;20048;-74
2023/04/14 03:54:45;;;;;;;10.95;3.85;;;;;;;;;;5092694;28;20055;-73
2023/04/14 03:57:13;;;;;;;11.35;4.22;;;;;;;;;;5092598;28;20044;-73
2023/04/14 03:59:40;;;;;;;11.73;4.20;;;;;;;;;;5087620;28;20122;-74
2023/04/14 04:02:07;;;;;;;11.57;4.45;;;;;;;;;;5073431;28;20045;-74
2023/04/14 04:04:35;;;;;;;10.40;4.63;;;;;;;;;;5078645;28;20127;-73
2023/04/14 04:07:02;;;;;;;13.57;3.80;;;;;;;;;;5092149;28;20048;-74
2023/04/14 04:09:29;;;;;;;9.90;3.90;;;;;;;;;;5093280;28;20040;-74
2023/04/14 04:11:58;;;;;;;8.82;3.85;;;;;;;;;;5081472;28;20536;-73
2023/04/14 04:14:25;;;;;;;8.00;3.55;;;;;;;;;;5093066;28;20124;-73
2023/04/14 04:16:53;;;;;;;6.35;3.30;;;;;;;;;;5093284;28;20044;-74
2023/04/14 04:19:20;;;;;;;8.15;3.50;;;;;;;;;;5079951;28;20052;-74
2023/04/14 04:21:47;;;;;;;10.50;3.22;;;;;;;;;;5072932;28;20052;-73
2023/04/14 04:24:14;;;;;;;7.38;3.58;;;;;;;;;;5077642;28;20127;-73
2023/04/14 04:26:41;;;;;;;6.43;3.17;;;;;;;;;;5091355;28;20044;-73
2023/04/14 04:29:07;;;;;;;6.50;3.20;;;;;;;;;;5078452;28;20076;-74
2023/04/14 04:31:33;;;;;;;8.65;3.42;;;;;;;;;;5072896;28;20041;-74
2023/04/14 04:33:59;;;;;;;8.50;3.08;;;;;;;;;;5073078;28;20131;-74
2023/04/14 04:36:27;;;;;;;10.80;4.43;;;;;;;;;;5072651;28;20481;-74
2023/04/14 04:38:53;;;;;;;8.25;3.35;;;;;;;;;;5087411;28;20041;-74
2023/04/14 04:41:22;;;;;;;7.20;3.42;;;;;;;;;;5073195;28;20044;-74
2023/04/14 04:43:48;;;;;;;7.43;3.63;;;;;;;;;;5080245;28;20051;-74
2023/04/14 04:46:20;;;;;;;8.90;3.50;;;;;;;;;;5093313;28;20071;-73
2023/04/14 04:48:49;;;;;;;6.05;3.05;;;;;;;;;;5083479;28;20120;-74
2023/04/14 04:51:16;;;;;;;10.43;3.80;;;;;;;;;;5072089;28;20052;-74
2023/04/14 04:53:43;;;;;;;7.78;3.22;;;;;;;;;;5088566;28;20049;-74
2023/04/14 04:56:09;;;;;;;6.13;3.28;;;;;;;;;;5092016;28;20040;-73
2023/04/14 04:58:37;;;;;;;8.95;3.22;;;;;;;;;;5088100;28;20475;-73
2023/04/14 05:01:08;;;;;;;11.07;3.83;;;;;;;;;;5095678;28;20119;-73
2023/04/14 05:03:34;;;;;;;6.40;3.88;;;;;;;;;;5089813;28;20052;-73
2023/04/14 05:06:00;;;;;;;7.80;3.90;;;;;;;;;;5095534;28;20115;-73
2023/04/14 05:08:26;;;;;;;8.50;3.80;;;;;;;;;;5090017;28;20056;-73
2023/04/14 05:10:52;;;;;;;9.27;4.50;;;;;;;;;;5075853;28;20059;-73
2023/04/14 05:13:18;;;;;;;7.97;3.95;;;;;;;;;;5079830;28;20040;-74
2023/04/14 05:15:45;;;;;;;9.48;4.53;;;;;;;;;;5096067;28;20049;-73
2023/04/14 05:18:11;;;;;;;8.13;3.85;;;;;;;;;;5077530;28;20368;-73
2023/04/14 05:20:37;;;;;;;6.75;3.55;;;;;;;;;;5094111;28;20044;-73
2023/04/14 05:23:03;;;;;;;5.80;4.18;;;;;;;;;;5095167;28;20115;-73
2023/04/14 05:25:29;;;;;;;8.98;3.55;;;;;;;;;;5094398;28;20123;-73
2023/04/14 05:27:55;;;;;;;11.68;4.05;;;;;;;;;;5087802;28;20043;-73
2023/04/14 05:30:21;;;;;;;8.32;4.03;;;;;;;;;;5077333;28;20044;-73
2023/04/14 05:32:47;;;;;;;12.70;4.30;;;;;;;;;;5081519;28;20032;-73
2023/04/14 05:35:14;;;;;;;8.68;4.40;;;;;;;;;;5092328;28;20055;-74
2023/04/14 05:37:40;;;;;;;11.02;4.13;;;;;;;;;;5075879;28;20044;-74
2023/04/14 05:40:07;;;;;;;7.80;4.05;;;;;;;;;;5075290;28;20044;-73
2023/04/14 05:42:33;;;;;;;9.40;4.10;;;;;;;;;;5075289;28;20047;-73
2023/04/14 05:44:59;;;;;;;8.50;4.05;;;;;;;;;;5080990;28;20040;-73
2023/04/14 05:47:25;;;;;;;8.93;4.30;;;;;;;;;;5095804;28;20050;-73
2023/04/14 05:49:51;;;;;;;9.48;4.30;;;;;;;;;;5083262;28;20040;-74
2023/04/14 05:52:17;;;;;;;8.45;3.97;;;;;;;;;;5079591;28;20047;-74
2023/04/14 05:54:43;;;;;;;11.75;4.53;;;;;;;;;;5095677;28;20043;-74
2023/04/14 05:57:09;;;;;;;10.52;4.20;;;;;;;;;;5084966;28;20044;-74
2023/04/14 05:59:35;;;;;;;7.75;4.10;;;;;;;;;;5089777;28;20047;-74
2023/04/14 06:02:05;;;;;;;8.70;4.00;;;;;;;;;;5095621;28;20036;-74
2023/04/14 06:04:31;;;;;;;7.63;4.10;;;;;;;;;;5081895;28;20185;-74
2023/04/14 06:06:57;;;;;;;7.63;4.18;;;;;;;;;;5080963;28;20386;-74
2023/04/14 06:09:23;;;;;;;13.13;4.60;;;;;;;;;;5057215;28;20102;-74
2023/04/14 06:11:50;;;;;;;9.40;4.32;;;;;;;;;;5076036;28;20106;-74
2023/04/14 06:14:16;;;;;;;9.30;4.28;;;;;;;;;;5088204;28;20049;-74
2023/04/14 06:16:42;;;;;;;9.43;4.50;;;;;;;;;;5084254;28;20044;-74
2023/04/14 06:19:08;;;;;;;9.57;3.88;;;;;;;;;;5081978;28;20057;-74
2023/04/14 06:21:34;;;;;;;8.75;4.30;;;;;;;;;;5073258;28;20119;-74
2023/04/14 06:24:00;;;;;;;7.47;4.25;;;;;;;;;;5086478;28;20087;-73
2023/04/14 06:26:26;;;;;;;9.20;4.03;;;;;;;;;;5079577;28;20090;-74
2023/04/14 06:28:52;;;;;;;7.90;3.88;;;;;;;;;;5074728;28;20530;-76
2023/04/14 06:31:19;;;;;;;9.50;4.00;;;;;;;;;;5073633;28;20142;-74
2023/04/14 06:33:45;;;;;;;8.48;4.28;;;;;;;;;;5094999;28;20040;-74
2023/04/14 06:36:12;;;;;;;9.15;4.07;;;;;;;;;;5094649;28;20047;-74
2023/04/14 06:38:38;;;;;;;10.65;4.35;;;;;;;;;;5094629;28;20048;-74
2023/04/14 06:41:04;;;;;;;9.40;4.20;;;;;;;;;;5093745;28;20119;-74
2023/04/14 06:43:30;;;;;;;8.30;3.83;;;;;;;;;;5094555;28;20068;-74
2023/04/14 06:45:56;;;;;;;9.45;4.47;;;;;;;;;;5076664;28;20085;-74
2023/04/14 06:48:22;;;;;;;6.78;4.10;;;;;;;;;;5093118;28;20093;-74
2023/04/14 06:50:55;;;;;;;8.20;4.40;;;;;;;;;;5094677;28;20083;-74
2023/04/14 06:53:21;;;;;;;7.38;4.25;;;;;;;;;;5093385;28;20079;-74
2023/04/14 06:55:57;;;;;;;10.77;4.15;;;;;;;;;;5092469;28;20062;-74
2023/04/14 06:58:24;;;;;;;12.75;4.68;;;;;;;;;;5074486;28;20051;-74
2023/04/14 07:00:59;;;;;;;8.80;4.07;;;;;;;;;;5074480;28;20041;-74
2023/04/14 07:03:26;;;;;;;10.63;4.13;;;;;;;;;;5073849;28;20041;-74
2023/04/14 07:05:52;;;;;;;9.07;3.95;;;;;;;;;;5073873;28;20041;-74
2023/04/14 07:08:19;;;;;;;10.20;4.53;;;;;;;;;;5074177;28;20048;-74
2023/04/14 07:10:45;;;;;;;12.63;4.28;;;;;;;;;;5074424;28;20495;-74
2023/04/14 07:13:11;;;;;;;7.85;3.85;;;;;;;;;;5092801;28;20494;-74
2023/04/14 07:15:37;;;;;;;8.82;4.00;;;;;;;;;;5093930;28;20093;-74
2023/04/14 07:18:03;;;;;;;10.00;4.25;;;;;;;;;;5092708;28;20182;-74
2023/04/14 07:20:29;;;;;;;7.32;3.90;;;;;;;;;;5073819;28;20048;-74
2023/04/14 07:22:55;;;;;;;7.75;4.20;;;;;;;;;;5072609;28;20114;-74
2023/04/14 07:25:22;;;;;;;10.40;4.38;;;;;;;;;;5074077;28;20048;-74
2023/04/14 07:27:48;;;;;;;8.63;4.00;;;;;;;;;;5078139;28;20032;-74
2023/04/14 07:30:17;;;;;;;13.18;4.20;;;;;;;;;;5092851;28;20097;-74
2023/04/14 07:32:43;;;;;;;9.73;4.40;;;;;;;;;;5089133;28;20453;-74
2023/04/14 07:35:09;;;;;;;10.50;4.30;;;;;;;;;;5073725;28;20040;-75
2023/04/14 07:37:35;;;;;;;9.95;4.22;;;;;;;;;;5072254;28;20048;-74
2023/04/14 07:40:02;;;;;;;10.13;4.43;;;;;;;;;;5072265;28;20044;-75
2023/04/14 07:42:28;;;;;;;7.15;4.28;;;;;;;;;;5075638;28;20068;-75
2023/04/14 07:44:54;;;;;;;7.60;4.35;;;;;;;;;;5092628;28;20391;-75
2023/04/14 07:47:20;;;;;;;9.98;4.50;;;;;;;;;;5092223;28;20076;-75
2023/04/14 07:49:46;;;;;;;9.55;3.72;;;;;;;;;;5093989;28;20051;-77
2023/04/14 07:52:12;;;;;;;8.55;4.57;;;;;;;;;;5093798;28;20083;-75
2023/04/14 07:54:38;;;;;;;8.65;3.88;;;;;;;;;;5093890;28;20051;-76
2023/04/14 07:57:07;;;;;;;8.43;4.00;;;;;;;;;;5091807;28;20040;-75
2023/04/14 07:59:33;;;;;;;8.70;3.78;;;;;;;;;;5093551;28;20047;-72
2023/04/14 08:01:59;;;;;;;8.52;4.18;;;;;;;;;;5090152;28;20032;-73
2023/04/14 08:04:25;;;;;;;10.77;3.80;;;;;;;;;;5081897;28;20040;-77
2023/04/14 08:06:51;;;;;;;8.38;3.67;;;;;;;;;;5093353;28;20460;-72
2023/04/14 08:09:18;;;;;;;9.13;3.72;;;;;;;;;;5089958;28;20048;-72
2023/04/14 08:11:44;;;;;;;8.32;3.45;;;;;;;;;;5092604;28;20579;-73
2023/04/14 08:14:10;;;;;;;8.77;3.80;;;;;;;;;;5094019;28;20045;-73
2023/04/14 08:16:36;;;;;;;9.35;3.40;;;;;;;;;;5096680;28;20058;-73
2023/04/14 08:19:05;;;;;;;12.60;4.15;;;;;;;;;;5092692;28;20053;-73
2023/04/14 08:21:31;;;;;;;7.68;3.33;;;;;;;;;;5076023;28;20048;-73
2023/04/14 08:23:58;;;;;;;8.48;3.38;;;;;;;;;;5073650;28;20049;-73
2023/04/14 08:26:27;;;;;;;7.50;3.22;;;;;;;;;;5088292;28;20040;-73
2023/04/14 08:28:53;;;;;;;7.47;2.63;;;;;;;;;;5092103;28;20182;-73
2023/04/14 08:31:22;;;;;;;10.52;3.20;;;;;;;;;;5095422;28;20072;-73
2023/04/14 08:33:48;;;;;;;5.28;2.80;;;;;;;;;;5093094;28;20048;-73
2023/04/14 08:36:14;;;;;;;8.48;3.42;;;;;;;;;;5082207;28;20040;-73
2023/04/14 08:38:40;;;;;;;5.82;2.55;;;;;;;;;;5097047;28;20051;-73
2023/04/14 08:41:08;;;;;;;6.15;2.80;;;;;;;;;;5088433;28;20386;-73
2023/04/14 08:43:35;;;;;;;6.93;2.50;;;;;;;;;;5088309;28;20427;-73
2023/04/14 08:46:01;;;;;;;8.95;3.05;;;;;;;;;;5078494;28;20110;-73
2023/04/14 08:48:29;;;;;;;7.00;2.85;;;;;;;;;;5074687;28;20045;-74
2023/04/14 08:51:03;;;;;;;8.02;3.08;;;;;;;;;;5079450;28;20094;-74
2023/04/14 08:53:30;;;;;;;8.13;2.60;;;;;;;;;;5092726;28;20052;-74
2023/04/14 08:55:58;;;;;;;5.53;2.33;;;;;;;;;;5090907;28;20048;-74
2023/04/14 08:58:24;;;;;;;7.03;2.90;;;;;;;;;;5087239;28;20127;-74
2023/04/14 09:00:51;;;;;;;7.45;2.83;;;;;;;;;;5094697;28;20501;-74
2023/04/14 09:03:18;;;;;;;6.07;2.42;;;;;;;;;;5095181;28;20059;-74
2023/04/14 09:05:44;;;;;;;7.95;2.80;;;;;;;;;;5082963;28;20123;-74
2023/04/14 09:08:10;;;;;;;7.88;2.80;;;;;;;;;;5083191;28;20040;-74
2023/04/14 09:10:37;;;;;;;9.02;2.70;;;;;;;;;;5079625;28;20052;-74
2023/04/14 09:13:05;;;;;;;8.60;2.63;;;;;;;;;;5095743;28;20036;-74
2023/04/14 09:15:31;;;;;;;6.60;2.63;;;;;;;;;;5095827;28;20502;-74
2023/04/14 09:17:57;;;;;;;5.97;2.45;;;;;;;;;;5093514;28;21544;-74
2023/04/14 09:20:24;;;;;;;7.18;2.80;;;;;;;;;;5078038;28;20130;-74
2023/04/14 09:22:52;;;;;;;9.60;3.08;;;;;;;;;;5075908;28;20391;-74
2023/04/14 09:25:19;;;;;;;6.40;2.58;;;;;;;;;;5075967;28;20036;-74
2023/04/14 09:27:47;;;;;;;9.45;3.15;;;;;;;;;;5075803;28;20052;-74
2023/04/14 09:30:14;;;;;;;7.28;2.88;;;;;;;;;;5075392;28;20410;-74
2023/04/14 09:32:41;;;;;;;6.20;2.40;;;;;;;;;;5076217;28;20047;-74
2023/04/14 09:35:12;;;;;;;5.32;2.35;;;;;;;;;;5088602;28;20101;-74
2023/04/14 09:37:45;;;;;;;6.05;2.80;;;;;;;;;;5096052;28;20123;-74
2023/04/14 09:40:26;;;;;;;5.88;2.50;;;;;;;;;;5096018;28;20180;-74
2023/04/14 09:42:53;;;;;;;9.23;2.83;;;;;;;;;;5094200;28;20088;-74
2023/04/14 09:45:19;;;;;;;8.77;2.65;;;;;;;;;;5094559;28;20048;-74
2023/04/14 09:47:45;;;;;;;6.53;2.70;;;;;;;;;;5095232;28;20051;-74
2023/04/14 09:50:11;;;;;;;6.82;2.80;;;;;;;;;;5095133;28;20080;-74
2023/04/14 09:52:45;;;;;;;6.53;2.83;;;;;;;;;;5094360;28;20094;-74
2023/04/14 09:55:12;;;;;;;7.85;2.90;;;;;;;;;;5095772;28;20048;-74
2023/04/14 09:57:50;;;;;;;6.60;2.80;;;;;;;;;;5095363;28;20481;-74
2023/04/14 10:00:21;;;;;;;14.05;3.30;;;;;;;;;;5095447;28;20379;-74
2023/04/14 10:02:48;;;;;;;5.18;2.83;;;;;;;;;;5093343;28;20505;-74
2023/04/14 10:05:14;;;;;;;6.63;3.33;;;;;;;;;;5076977;28;20048;-74
2023/04/14 10:07:41;;;;;;;6.07;2.53;;;;;;;;;;5074351;28;20131;-74
2023/04/14 10:10:10;;;;;;;4.15;2.50;;;;;;;;;;5075102;28;20048;-74
2023/04/14 10:12:36;;;;;;;6.55;2.15;;;;;;;;;;5075177;28;20049;-74
2023/04/14 10:15:03;;;;;;;8.38;2.47;;;;;;;;;;5075015;28;20041;-75
2023/04/14 10:17:30;;;;;;;5.50;2.30;;;;;;;;;;5074757;28;21160;-74
2023/04/14 10:19:57;;;;;;;8.43;2.70;;;;;;;;;;5078990;28;20063;-75
2023/04/14 10:22:26;;;;;;;6.82;2.50;;;;;;;;;;5087174;28;20043;-78
2023/04/14 10:24:52;;;;;;;7.80;2.83;;;;;;;;;;5088262;28;20044;-75
2023/04/14 10:27:18;;;;;;;7.25;3.03;;;;;;;;;;5074808;28;20409;-75
2023/04/14 10:29:46;;;;;;;6.93;2.85;;;;;;;;;;5076186;28;20044;-74
2023/04/14 10:32:14;;;;;;;7.03;2.85;;;;;;;;;;5092436;28;20044;-74
2023/04/14 10:34:53;;;;;;;16.50;3.38;;;;;;;;;;5081048;28;20109;-74
2023/04/14 10:37:19;;;;;;;6.30;2.33;;;;;;;;;;5095032;28;20044;-74
2023/04/14 10:39:54;;;;;;;6.70;3.13;;;;;;;;;;5093284;28;20474;-74
2023/04/14 10:42:20;;;;;;;4.80;2.30;;;;;;;;;;5081699;28;20149;-74
2023/04/14 10:45:00;;;;;;;6.68;2.60;;;;;;;;;;5074467;28;20044;-74
2023/04/14 10:47:26;;;;;;;5.28;2.30;;;;;;;;;;5074617;28;20045;-78
2023/04/14 10:49:57;;;;;;;7.45;2.70;;;;;;;;;;5084074;28;20123;-75
2023/04/14 10:52:26;;;;;;;5.80;2.47;;;;;;;;;;5089519;28;20101;-74
2023/04/14 10:54:53;;;;;;;5.00;2.45;;;;;;;;;;5078496;28;20132;-74
2023/04/14 10:57:25;;;;;;;6.50;2.33;;;;;;;;;;5094129;28;20036;-74
2023/04/14 10:59:55;;;;;;;5.40;2.30;;;;;;;;;;5084661;28;20115;-74
2023/04/14 11:02:29;;;;;;;7.57;2.75;;;;;;;;;;5074110;28;20044;-74
2023/04/14 11:04:58;;;;;;;5.55;2.30;;;;;;;;;;5077580;28;20123;-74
2023/04/14 11:07:24;;;;;;;6.70;2.20;;;;;;;;;;5093006;28;20047;-74
2023/04/14 11:09:50;;;;;;;6.00;2.35;;;;;;;;;;5093089;28;20097;-74
2023/04/14 11:12:23;;;;;;;4.53;2.22;;;;;;;;;;5093141;28;20052;-74
2023/04/14 11:14:54;;;;;;;4.13;2.35;;;;;;;;;;5093515;28;20048;-74
2023/04/14 11:17:21;;;;;;;4.45;2.45;;;;;;;;;;5072161;28;20087;-75
2023/04/14 11:19:47;;;;;;;5.30;2.63;;;;;;;;;;5073730;28;20368;-74
2023/04/14 11:22:13;;;;;;;6.45;2.60;;;;;;;;;;5074130;28;20052;-74
2023/04/14 11:24:40;;;;;;;5.95;2.50;;;;;;;;;;5076307;28;20044;-74
2023/04/14 11:27:10;;;;;;;7.63;2.30;;;;;;;;;;5078218;28;20062;-74
2023/04/14 11:29:37;;;;;;;6.63;2.85;;;;;;;;;;5077883;28;20040;-74
2023/04/14 11:32:05;;;;;;;5.97;2.40;;;;;;;;;;5072490;28;20070;-74
2023/04/14 11:34:32;;;;;;;4.60;2.00;;;;;;;;;;5073620;28;20051;-74
2023/04/14 11:37:00;;;;;;;5.20;2.65;;;;;;;;;;5093761;28;20052;-74
2023/04/14 11:39:28;;;;;;;6.60;2.63;;;;;;;;;;5085084;28;20079;-74
2023/04/14 11:41:58;;;;;;;6.90;2.58;;;;;;;;;;5089525;28;20052;-74
2023/04/14 11:44:24;;;;;;;5.55;2.50;;;;;;;;;;5093703;28;20136;-74
2023/04/14 11:46:51;;;;;;;6.20;2.58;;;;;;;;;;5093588;28;20081;-74
2023/04/14 11:49:17;;;;;;;7.95;2.60;;;;;;;;;;5093700;28;20044;-74
2023/04/14 11:51:43;;;;;;;5.88;2.50;;;;;;;;;;5093548;28;20043;-74
2023/04/14 11:54:11;;;;;;;7.60;2.63;;;;;;;;;;5092207;28;20101;-74
2023/04/14 11:56:38;;;;;;;5.72;2.10;;;;;;;;;;5086471;28;20515;-74
2023/04/14 11:59:05;;;;;;;5.82;2.33;;;;;;;;;;5093215;28;20048;-74
2023/04/14 12:01:31;;;;;;;5.97;2.78;;;;;;;;;;5093846;28;20166;-75
2023/04/14 12:03:58;;;;;;;8.98;3.05;;;;;;;;;;5091360;28;20056;-75
2023/04/14 12:06:26;;;;;;;5.03;2.55;;;;;;;;;;5094461;28;20051;-75
2023/04/14 12:08:52;;;;;;;5.43;2.13;;;;;;;;;;5097545;28;20044;-75
2023/04/14 12:11:18;;;;;;;5.40;2.30;;;;;;;;;;5097703;28;20047;-75
2023/04/14 12:13:45;;;;;;;5.93;2.13;;;;;;;;;;5097706;28;20127;-75
2023/04/14 12:16:12;;;;;;;6.13;2.28;;;;;;;;;;5096149;28;20093;-76
2023/04/14 12:18:39;;;;;;;7.22;2.47;;;;;;;;;;5097125;28;20060;-76
2023/04/14 12:21:05;;;;;;;6.22;2.30;;;;;;;;;;5083351;28;20052;-76
2023/04/14 12:23:37;;;;;;;7.70;2.55;;;;;;;;;;5077193;28;20083;-76
2023/04/14 12:26:08;;;;;;;7.25;2.67;;;;;;;;;;5085991;28;20047;-76
2023/04/14 12:28:35;;;;;;;6.00;2.53;;;;;;;;;;5097219;28;20040;-75
2023/04/14 12:31:03;;;;;;;4.65;2.10;;;;;;;;;;5078638;28;20402;-76
2023/04/14 12:33:30;;;;;;;7.30;2.47;;;;;;;;;;5096059;28;20051;-76
2023/04/14 12:36:12;;;;;;;5.15;2.72;;;;;;;;;;5082317;28;20372;-76
2023/04/14 12:38:38;;;;;;;6.15;2.75;;;;;;;;;;5075737;28;20052;-76
2023/04/14 12:41:04;;;;;;;6.07;2.38;;;;;;;;;;5076596;28;20471;-75
2023/04/14 12:43:32;;;;;;;7.13;2.50;;;;;;;;;;5083798;28;20055;-75
2023/04/14 12:45:58;;;;;;;4.88;2.10;;;;;;;;;;5097238;28;20127;-75
2023/04/14 12:48:43;;;;;;;4.20;1.85;;;;;;;;;;5096804;28;20420;-75
2023/04/14 12:51:10;;;;;;;5.60;2.30;;;;;;;;;;5095082;28;20502;-75
2023/04/14 12:53:36;;;;;;;6.53;2.20;;;;;;;;;;5096804;28;20112;-75
2023/04/14 12:56:06;;;;;;;6.80;2.63;;;;;;;;;;5096522;28;20040;-75
2023/04/14 12:58:33;;;;;;;3.47;2.30;;;;;;;;;;5084775;28;20041;-75
2023/04/14 13:00:59;;;;;;;3.72;1.95;;;;;;;;;;5076028;28;20036;-75
2023/04/14 13:03:37;;;;;;;4.22;1.90;;;;;;;;;;5074918;28;20055;-75
2023/04/14 13:06:03;;;;;;;6.72;2.47;;;;;;;;;;5076636;28;20048;-75
2023/04/14 13:08:29;;;;;;;5.50;2.22;;;;;;;;;;5076119;28;20129;-75
2023/04/14 13:10:55;;;;;;;7.32;2.05;;;;;;;;;;5076455;28;20040;-75
2023/04/14 13:13:22;;;;;;;7.35;2.65;;;;;;;;;;5081469;28;20043;-75
2023/04/14 13:15:48;;;;;;;5.07;2.20;;;;;;;;;;5086654;28;20048;-75
2023/04/14 13:18:16;;;;;;;4.72;2.00;;;;;;;;;;5074394;28;20054;-75
2023/04/14 13:20:42;;;;;;;6.25;2.20;;;;;;;;;;5094042;28;20048;-75
2023/04/14 13:23:08;;;;;;;6.68;2.33;;;;;;;;;;5095221;28;20084;-75
2023/04/14 13:25:37;;;;;;;5.47;2.38;;;;;;;;;;5095967;28;20497;-75
2023/04/14 13:28:03;;;;;;;7.15;2.55;;;;;;;;;;5090401;28;20045;-75
2023/04/14 13:30:30;;;;;;;5.53;2.10;;;;;;;;;;5077011;28;20044;-76
2023/04/14 13:32:57;;;;;;;5.90;2.40;;;;;;;;;;5095885;28;20051;-76
2023/04/14 13:35:23;;;;;;;5.78;2.35;;;;;;;;;;5080596;28;20052;-76
2023/04/14 13:37:49;;;;;;;5.05;1.90;;;;;;;;;;5074712;28;20048;-75
2023/04/14 13:40:15;;;;;;;5.72;2.40;;;;;;;;;;5076783;28;20041;-76
2023/04/14 13:42:41;;;;;;;5.78;2.33;;;;;;;;;;5082597;28;20040;-75
2023/04/14 13:45:07;;;;;;;5.78;2.35;;;;;;;;;;5074316;28;20055;-76
2023/04/14 13:47:36;;;;;;;4.53;2.10;;;;;;;;;;5075592;28;20463;-76
2023/04/14 13:50:02;;;;;;;5.80;2.10;;;;;;;;;;5074023;28;20051;-76
2023/04/14 13:52:29;;;;;;;5.03;2.38;;;;;;;;;;5075717;28;20055;-76
2023/04/14 13:54:55;;;;;;;5.53;2.28;;;;;;;;;;5086597;28;20074;-76
2023/04/14 13:57:21;;;;;;;4.75;2.00;;;;;;;;;;5092543;28;20383;-76
2023/04/14 13:59:47;;;;;;;5.28;2.45;;;;;;;;;;5095666;28;20052;-76
2023/04/14 14:02:13;;;;;;;6.22;2.15;;;;;;;;;;5078712;28;20044;-76
2023/04/14 14:04:39;;;;;;;6.20;1.95;;;;;;;;;;5074672;28;20123;-76
2023/04/14 14:07:05;;;;;;;5.10;2.00;;;;;;;;;;5075626;28;20066;-76
2023/04/14 14:09:31;;;;;;;4.45;2.28;;;;;;;;;;5075025;28;20044;-76
2023/04/14 14:11:57;;;;;;;5.43;2.03;;;;;;;;;;5077759;28;20048;-76
2023/04/14 14:14:24;;;;;;;4.53;2.20;;;;;;;;;;5095212;28;20371;-76
2023/04/14 14:16:50;;;;;;;4.80;1.98;;;;;;;;;;5094373;28;20048;-76
2023/04/14 14:19:16;;;;;;;5.32;2.20;;;;;;;;;;5093783;28;20134;-76
2023/04/14 14:21:43;;;;;;;7.05;2.38;;;;;;;;;;5094997;28;20040;-76
2023/04/14 14:24:09;;;;;;;9.70;2.22;;;;;;;;;;5095351;28;20089;-76
2023/04/14 14:26:35;;;;;;;5.28;2.83;;;;;;;;;;5092966;28;20046;-76
2023/04/14 14:29:02;;;;;;;5.68;2.30;;;;;;;;;;5094559;28;20181;-76
2023/04/14 14:31:28;;;;;;;4.22;1.95;;;;;;;;;;5082989;28;20131;-76
2023/04/14 14:33:54;;;;;;;9.48;2.92;;;;;;;;;;5096167;28;20040;-76
2023/04/14 14:36:21;;;;;;;7.13;2.83;;;;;;;;;;5090307;28;20048;-75
2023/04/14 14:38:47;;;;;;;9.55;3.55;;;;;;;;;;5095806;28;20048;-75
2023/04/14 14:41:13;;;;;;;10.85;3.88;;;;;;;;;;5096725;28;20040;-75
2023/04/14 14:43:39;;;;;;;7.88;3.88;;;;;;;;;;5101108;28;20047;-75